Time;durP1;ratioP1;P1;durP2;ratioP2;P2;SDS_P1;SDS_P2;PMS_P1;PMS_P2;Temp;Humidity;BMP_temperature;BMP_pressure;BME280_temperature;BME280_humidity;BME280_pressure;Samples;Min_cycle;Max_cycle;Signal;HPM_P1;HPM_P2
2021/06/12 00:01:47;282484.00;0.94;487.81;71224.00;0.24;123.88;;;;;21.90;1.00;;;;;;2263036;61;1022;-88
2021/06/12 00:04:15;378530.00;1.26;652.90;63574.00;0.21;110.65;;;;;21.90;1.00;;;;;;2280826;61;1140;-88
2021/06/12 00:06:42;304886.00;1.02;526.32;63031.00;0.21;109.72;;;;;21.90;1.00;;;;;;2276027;61;1073;-87
2021/06/12 00:09:08;354435.00;1.18;611.48;68371.00;0.23;118.95;;;;;21.90;1.00;;;;;;2269544;61;1512;-87
2021/06/12 00:11:36;386338.00;1.29;666.32;72390.00;0.24;125.89;;;;;22.00;1.00;;;;;;2267353;61;966;-87
2021/06/12 00:14:03;224897.00;0.75;388.77;66033.00;0.22;114.90;;;;;22.00;1.00;;;;;;2261453;61;1014;-87
2021/06/12 00:16:29;305692.00;1.02;527.70;72791.00;0.24;126.58;;;;;22.00;1.00;;;;;;2261524;61;1915;-87
2021/06/12 00:18:56;260565.00;0.87;450.12;69666.00;0.23;121.18;;;;;22.10;1.00;;;;;;2261429;61;1287;-87
2021/06/12 00:21:23;365137.00;1.22;629.88;64061.00;0.21;111.50;;;;;22.10;1.00;;;;;;2261495;61;989;-87
2021/06/12 00:23:50;455778.00;1.52;785.72;101699.00;0.34;176.50;;;;;21.90;1.00;;;;;;2268515;61;1023;-87
2021/06/12 00:26:16;538762.00;1.80;928.59;130645.00;0.44;226.44;;;;;21.50;1.00;;;;;;2265465;61;1168;-86
2021/06/12 00:28:43;386517.00;1.29;666.63;110713.00;0.37;192.06;;;;;21.20;1.00;;;;;;2273080;61;1286;-87
2021/06/12 00:31:09;335942.00;1.12;579.70;75857.00;0.25;131.88;;;;;21.00;1.00;;;;;;2280741;61;1134;-86
2021/06/12 00:33:36;439634.00;1.47;757.95;75630.00;0.25;131.49;;;;;21.00;1.00;;;;;;2280725;61;1569;-87
2021/06/12 00:36:02;316600.00;1.06;546.45;67969.00;0.23;118.25;;;;;20.90;1.00;;;;;;2280781;61;2061;-86
2021/06/12 00:38:30;310276.00;1.03;535.58;74148.00;0.25;128.93;;;;;20.70;1.00;;;;;;2273463;61;1355;-85
2021/06/12 00:40:57;291782.00;0.97;503.79;77297.00;0.26;134.37;;;;;20.40;1.00;;;;;;2270258;61;1175;-86
2021/06/12 00:43:23;335190.00;1.12;578.41;76170.00;0.25;132.42;;;;;20.10;1.00;;;;;;2280652;61;1229;-86
2021/06/12 00:45:49;390058.00;1.30;672.71;67252.00;0.22;117.01;;;;;19.80;1.00;;;;;;2276909;61;996;-85
2021/06/12 00:48:16;294914.00;0.98;509.18;76176.00;0.25;132.43;;;;;19.70;1.00;;;;;;2280675;61;1431;-84
2021/06/12 00:50:42;378284.00;1.26;652.48;72935.00;0.24;126.83;;;;;19.70;1.00;;;;;;2280686;61;1112;-86
2021/06/12 00:53:09;221211.00;0.74;382.43;70980.00;0.24;123.45;;;;;19.90;1.00;;;;;;2280720;61;948;-87
2021/06/12 00:55:37;322912.00;1.08;557.30;66148.00;0.22;115.10;;;;;20.00;1.00;;;;;;2276775;61;1990;-87
2021/06/12 00:58:08;354249.00;1.18;611.16;130086.00;0.43;225.48;;;;;20.20;1.00;;;;;;2271939;61;1246;-86
2021/06/12 01:00:35;451406.00;1.50;778.20;113037.00;0.38;196.07;;;;;20.20;1.00;;;;;;2272038;61;1005;-85
2021/06/12 01:03:02;188010.00;0.63;325.28;69015.00;0.23;120.06;;;;;20.20;1.00;;;;;;2268490;61;1101;-86
2021/06/12 01:05:29;291561.00;0.97;503.41;69083.00;0.23;120.18;;;;;20.20;1.00;;;;;;2265314;61;1193;-87
2021/06/12 01:07:55;183035.00;0.61;316.72;66612.00;0.22;115.91;;;;;20.40;1.00;;;;;;2271826;61;1304;-87
2021/06/12 01:10:22;171387.00;0.57;296.66;77597.00;0.26;134.89;;;;;20.40;1.00;;;;;;2267734;61;1129;-87
2021/06/12 01:13:10;238469.00;0.79;412.12;74344.00;0.25;129.27;;;;;20.50;1.00;;;;;;2263806;61;1019;-87
2021/06/12 01:15:51;132051.00;0.44;228.87;0.00;0.00;0.62;;;;;20.60;1.00;;;;;;2257929;61;2006;-87
2021/06/12 01:18:19;20464.00;0.07;36.07;0.00;0.00;0.62;;;;;20.60;1.00;;;;;;2261129;61;1361;-87
2021/06/12 01:21:08;36621.00;0.12;64.04;0.00;0.00;0.62;;;;;20.70;1.00;;;;;;2264507;61;1094;-86
2021/06/12 01:24:11;0.00;0.00;0.62;0.00;0.00;0.62;;;;;21.00;1.00;;;;;;2264373;61;1074;-87
2021/06/12 01:27:00;0.00;0.00;0.62;0.00;0.00;0.62;;;;;21.00;1.00;;;;;;2264346;61;1176;-87
2021/06/12 01:29:41;10976.00;0.04;19.64;0.00;0.00;0.62;;;;;20.90;1.00;;;;;;2271531;61;1427;-87
2021/06/12 01:32:12;95973.00;0.32;166.62;0.00;0.00;0.62;;;;;20.70;1.00;;;;;;2273184;61;1187;-87
2021/06/12 01:34:41;184779.00;0.62;319.72;76763.00;0.26;133.45;;;;;20.80;1.00;;;;;;2270004;61;1073;-86
2021/06/12 01:37:10;234302.00;0.78;404.95;69600.00;0.23;121.07;;;;;20.90;1.00;;;;;;2273351;61;2005;-86
2021/06/12 01:39:40;201285.00;0.67;348.14;68291.00;0.23;118.81;;;;;20.90;1.00;;;;;;2271744;61;1508;-87
2021/06/12 01:42:08;183422.00;0.61;317.38;74881.00;0.25;130.19;;;;;21.20;1.00;;;;;;2259702;61;1176;-87
2021/06/12 01:44:36;177966.00;0.59;307.99;74804.00;0.25;130.06;;;;;21.30;1.00;;;;;;2253178;61;1110;-87
2021/06/12 01:47:04;317560.00;1.06;548.10;69008.00;0.23;120.05;;;;;21.00;1.00;;;;;;2259677;61;1153;-87
2021/06/12 01:49:34;276301.00;0.92;477.18;68557.00;0.23;119.27;;;;;21.00;1.00;;;;;;2256386;61;1424;-87
2021/06/12 01:52:01;220250.00;0.73;380.77;58535.00;0.20;101.94;;;;;21.10;1.00;;;;;;2259807;61;1019;-88
2021/06/12 01:54:28;312129.00;1.04;538.77;97046.00;0.32;168.47;;;;;21.20;1.00;;;;;;2259765;61;1074;-86
2021/06/12 01:56:55;201635.00;0.67;348.74;78596.00;0.26;136.61;;;;;21.10;1.00;;;;;;2257144;61;2007;-87
2021/06/12 01:59:22;203113.00;0.68;351.28;76392.00;0.25;132.80;;;;;20.60;1.00;;;;;;2262439;61;1443;-87
2021/06/12 02:01:52;167438.00;0.56;289.85;70700.00;0.24;122.97;;;;;20.10;1.00;;;;;;2269122;61;965;-85
2021/06/12 02:04:20;603190.00;2.01;1039.73;182634.00;0.61;316.03;;;;;19.80;1.00;;;;;;2275882;61;1104;-86
2021/06/12 02:06:49;251656.00;0.84;434.80;75948.00;0.25;132.04;;;;;19.80;1.00;;;;;;2265911;61;959;-85
2021/06/12 02:09:18;183484.00;0.61;317.49;74454.00;0.25;129.46;;;;;20.00;1.00;;;;;;2265891;61;1333;-85
2021/06/12 02:11:45;184134.00;0.61;318.61;74724.00;0.25;129.92;;;;;20.10;1.00;;;;;;2271672;61;980;-85
2021/06/12 02:14:14;318987.00;1.06;550.56;69943.00;0.23;121.66;;;;;20.10;1.00;;;;;;2265876;61;1004;-86
2021/06/12 02:16:41;273806.00;0.91;472.89;68834.00;0.23;119.75;;;;;20.10;1.00;;;;;;2269062;61;1915;-86
2021/06/12 02:19:11;376081.00;1.25;648.69;96541.00;0.32;167.60;;;;;19.80;1.00;;;;;;2265764;61;1447;-86
2021/06/12 02:21:40;223890.00;0.75;387.04;72431.00;0.24;125.96;;;;;19.70;1.00;;;;;;2269182;61;993;-86
2021/06/12 02:24:10;187395.00;0.62;324.22;74868.00;0.25;130.17;;;;;19.60;1.00;;;;;;2265855;61;1076;-85
2021/06/12 02:26:40;240790.00;0.80;416.11;78126.00;0.26;135.80;;;;;19.50;1.00;;;;;;2263686;61;948;-86
2021/06/12 02:29:09;254875.00;0.85;440.34;70577.00;0.24;122.76;;;;;19.60;1.00;;;;;;2261294;61;1381;-86
2021/06/12 02:31:41;277495.00;0.92;479.23;68882.00;0.23;119.83;;;;;19.80;1.00;;;;;;2271569;61;1117;-87
2021/06/12 02:34:07;163633.00;0.55;283.30;72231.00;0.24;125.62;;;;;20.20;1.00;;;;;;2268501;61;1180;-86
2021/06/12 02:36:34;323710.00;1.08;558.67;69197.00;0.23;120.37;;;;;20.00;1.00;;;;;;2268215;61;1918;-86
2021/06/12 02:39:00;259972.00;0.87;449.10;69866.00;0.23;121.53;;;;;19.80;1.00;;;;;;2271380;61;1408;-86
2021/06/12 02:41:28;290226.00;0.97;501.12;72819.00;0.24;126.63;;;;;19.60;1.00;;;;;;2264868;61;1026;-85
2021/06/12 02:43:54;294531.00;0.98;508.52;62268.00;0.21;108.40;;;;;19.40;1.00;;;;;;2267249;61;1074;-85
2021/06/12 02:46:24;266436.00;0.89;460.22;73241.00;0.24;127.36;;;;;19.10;1.00;;;;;;2270447;61;995;-86
2021/06/12 02:48:55;375845.00;1.25;648.28;75666.00;0.25;131.55;;;;;19.20;1.00;;;;;;2270517;61;1457;-86
2021/06/12 02:51:22;34000.00;0.11;59.51;0.00;0.00;0.62;;;;;19.40;1.00;;;;;;2272165;61;954;-86
2021/06/12 02:53:51;309447.00;1.03;534.16;69896.00;0.23;121.58;;;;;19.60;1.00;;;;;;2268964;61;974;-86
2021/06/12 02:56:20;385031.00;1.28;664.07;75411.00;0.25;131.11;;;;;19.70;1.00;;;;;;2268880;61;1998;-86
2021/06/12 02:58:49;260739.00;0.87;450.42;64659.00;0.22;112.53;;;;;19.80;1.00;;;;;;2272325;61;1391;-86
2021/06/12 03:01:17;204791.00;0.68;354.17;60264.00;0.20;104.93;;;;;19.60;1.00;;;;;;2272487;61;1020;-86
2021/06/12 03:03:45;261007.00;0.87;450.88;75518.00;0.25;131.29;;;;;19.50;1.00;;;;;;2265655;61;1028;-86
2021/06/12 03:06:13;283025.00;0.94;488.74;80918.00;0.27;140.62;;;;;19.40;1.00;;;;;;2268226;61;972;-86
2021/06/12 03:08:44;264364.00;0.88;456.65;77380.00;0.26;134.51;;;;;19.50;1.00;;;;;;2266358;61;1377;-86
2021/06/12 03:11:14;227679.00;0.76;393.56;79749.00;0.27;138.60;;;;;19.60;1.00;;;;;;2269765;61;1065;-86
2021/06/12 03:13:44;178778.00;0.60;309.39;67423.00;0.22;117.31;;;;;19.70;1.00;;;;;;2269744;61;1038;-86
2021/06/12 03:16:14;282906.00;0.94;488.53;73629.00;0.25;128.03;;;;;19.80;1.00;;;;;;2266369;61;1994;-86
2021/06/12 03:18:43;360555.00;1.20;622.00;96099.00;0.32;166.84;;;;;19.70;1.00;;;;;;2269700;61;1396;-86
2021/06/12 03:21:11;322475.00;1.07;556.55;69977.00;0.23;121.72;;;;;19.50;1.00;;;;;;2264193;61;973;-87
2021/06/12 03:23:38;306163.00;1.02;528.51;71603.00;0.24;124.53;;;;;19.50;1.00;;;;;;2265216;61;1035;-87
2021/06/12 03:26:05;217974.00;0.73;376.86;74554.00;0.25;129.63;;;;;19.50;1.00;;;;;;2268283;61;1063;-86
2021/06/12 03:28:32;244562.00;0.82;422.60;73377.00;0.24;127.60;;;;;19.60;1.00;;;;;;2264086;61;1322;-86
2021/06/12 03:31:02;413111.00;1.38;712.35;71365.00;0.24;124.12;;;;;19.60;1.00;;;;;;2260816;61;970;-86
2021/06/12 03:33:30;272878.00;0.91;471.29;74334.00;0.25;129.25;;;;;19.40;1.00;;;;;;2264242;61;1047;-86
2021/06/12 03:35:57;449022.00;1.50;774.10;90338.00;0.30;156.89;;;;;19.20;1.00;;;;;;2260705;61;2014;-86
2021/06/12 03:38:26;348246.00;1.16;600.85;70842.00;0.24;123.22;;;;;19.20;1.00;;;;;;2258842;61;1404;-87
2021/06/12 03:40:54;312724.00;1.04;539.79;86528.00;0.29;150.31;;;;;19.20;1.00;;;;;;2264045;61;997;-86
2021/06/12 03:43:22;213942.00;0.71;369.92;75513.00;0.25;131.29;;;;;19.30;1.00;;;;;;2264204;61;1012;-87
2021/06/12 03:45:51;519808.00;1.73;895.93;152609.00;0.51;264.30;;;;;19.10;1.00;;;;;;2254198;61;1013;-86
2021/06/12 03:48:21;278664.00;0.93;481.24;81671.00;0.27;141.92;;;;;19.00;1.00;;;;;;2260768;61;1478;-86
2021/06/12 03:50:51;108590.00;0.36;188.40;0.00;0.00;0.62;;;;;19.00;1.00;;;;;;2260132;61;969;-86
2021/06/12 03:53:19;45442.00;0.15;79.30;0.00;0.00;0.62;;;;;19.10;1.00;;;;;;2257488;61;1089;-86
2021/06/12 03:55:46;339418.00;1.13;585.67;62993.00;0.21;109.65;;;;;18.90;1.00;;;;;;2254153;61;2001;-86
2021/06/12 03:58:13;245399.00;0.82;424.04;52183.00;0.17;90.96;;;;;19.00;1.00;;;;;;2265709;61;1291;-86
2021/06/12 04:00:40;184406.00;0.61;319.08;72979.00;0.24;126.91;;;;;19.00;1.00;;;;;;2272208;61;1156;-86
2021/06/12 04:03:07;298052.00;0.99;514.57;102236.00;0.34;177.43;;;;;19.10;1.00;;;;;;2268672;61;934;-86
2021/06/12 04:05:33;246189.00;0.82;425.40;75673.00;0.25;131.56;;;;;19.20;1.00;;;;;;2272014;61;982;-86
2021/06/12 04:08:01;201640.00;0.67;348.75;77150.00;0.26;134.11;;;;;19.30;1.00;;;;;;2273283;61;1479;-86
2021/06/12 04:10:27;231163.00;0.77;399.55;68126.00;0.23;118.52;;;;;19.40;1.00;;;;;;2270221;61;1016;-87
2021/06/12 04:12:54;452603.00;1.51;780.26;128823.00;0.43;223.30;;;;;19.30;1.00;;;;;;2268017;61;1020;-87
2021/06/12 04:15:20;235905.00;0.79;407.71;73125.00;0.24;127.16;;;;;19.40;1.00;;;;;;2268071;61;1985;-86
2021/06/12 04:17:49;249451.00;0.83;431.01;68638.00;0.23;119.41;;;;;19.30;1.00;;;;;;2268099;61;1333;-87
2021/06/12 04:20:16;342545.00;1.14;591.05;117073.00;0.39;203.03;;;;;19.30;1.00;;;;;;2268091;61;1020;-87
2021/06/12 04:22:42;235866.00;0.79;407.64;78335.00;0.26;136.16;;;;;19.50;1.00;;;;;;2268034;61;1077;-86
2021/06/12 04:25:11;207377.00;0.69;358.62;71486.00;0.24;124.33;;;;;19.60;1.00;;;;;;2261401;61;998;-86
2021/06/12 04:27:39;327538.00;1.09;565.25;70609.00;0.24;122.81;;;;;19.80;1.00;;;;;;2268059;61;1390;-87
2021/06/12 04:30:06;201963.00;0.67;349.30;73190.00;0.24;127.27;;;;;20.20;1.00;;;;;;2263173;61;1026;-86
2021/06/12 04:32:33;411689.00;1.37;709.90;80664.00;0.27;140.18;;;;;20.70;1.00;;;;;;2276164;61;1023;-86
2021/06/12 04:34:59;412840.00;1.38;711.88;114912.00;0.38;199.31;;;;;20.80;1.00;;;;;;2272778;61;1039;-87
2021/06/12 04:37:26;222506.00;0.74;384.66;68027.00;0.23;118.35;;;;;21.10;1.00;;;;;;2276207;61;1931;-86
2021/06/12 04:39:52;208895.00;0.70;361.23;80790.00;0.27;140.40;;;;;21.30;1.00;;;;;;2276255;61;1116;-87
2021/06/12 04:42:20;517304.00;1.72;891.62;118124.00;0.39;204.85;;;;;21.00;1.00;;;;;;2276257;61;1066;-88
2021/06/12 04:44:47;272569.00;0.91;470.76;77735.00;0.26;135.12;;;;;21.00;1.00;;;;;;2276169;61;981;-88
2021/06/12 04:47:14;297627.00;0.99;513.84;68713.00;0.23;119.54;;;;;21.10;1.00;;;;;;2269369;61;1029;-87
2021/06/12 04:49:41;185929.00;0.62;321.70;70011.00;0.23;121.78;;;;;21.20;1.00;;;;;;2269806;61;1423;-87
2021/06/12 04:52:07;282582.00;0.94;487.98;58570.00;0.20;102.00;;;;;21.30;1.00;;;;;;2280519;61;1042;-86
2021/06/12 04:54:34;218424.00;0.73;377.63;77281.00;0.26;134.34;;;;;20.90;1.00;;;;;;2280588;61;1077;-87
2021/06/12 04:57:00;186845.00;0.62;323.28;69074.00;0.23;120.16;;;;;20.60;1.00;;;;;;2273383;61;2006;-87
2021/06/12 04:59:28;376141.00;1.25;648.79;78865.00;0.26;137.08;;;;;20.50;1.00;;;;;;2276830;61;1386;-87
2021/06/12 05:01:55;245889.00;0.82;424.88;71424.00;0.24;124.22;;;;;20.50;1.00;;;;;;2280170;61;1055;-87
2021/06/12 05:04:21;275772.00;0.92;476.27;75865.00;0.25;131.89;;;;;20.60;1.00;;;;;;2273536;61;1327;-87
2021/06/12 05:06:48;260829.00;0.87;450.57;71085.00;0.24;123.64;;;;;20.70;1.00;;;;;;2270228;61;949;-87
2021/06/12 05:09:14;201831.00;0.67;349.08;70874.00;0.24;123.27;;;;;21.00;1.00;;;;;;2280504;61;1358;-87
2021/06/12 05:11:41;184675.00;0.62;319.54;73602.00;0.25;127.98;;;;;21.30;1.00;;;;;;2271905;61;1165;-87
2021/06/12 05:14:07;203980.00;0.68;352.77;65674.00;0.22;114.28;;;;;21.60;1.00;;;;;;2265357;61;1082;-87
2021/06/12 05:16:36;167117.00;0.56;289.30;68793.00;0.23;119.67;;;;;21.70;1.00;;;;;;2271922;61;1996;-88
2021/06/12 05:19:03;302528.00;1.01;522.27;74436.00;0.25;129.43;;;;;21.70;1.00;;;;;;2268565;61;1454;-87
2021/06/12 05:21:32;203879.00;0.68;352.60;72871.00;0.24;126.72;;;;;21.50;1.00;;;;;;2272091;61;975;-88
2021/06/12 05:23:59;198232.00;0.66;342.88;77471.00;0.26;134.67;;;;;21.40;1.00;;;;;;2268505;61;951;-88
2021/06/12 05:26:25;173388.00;0.58;300.10;67398.00;0.22;117.26;;;;;21.10;1.00;;;;;;2268595;61;967;-87
2021/06/12 05:28:52;226511.00;0.76;391.55;78978.00;0.26;137.27;;;;;21.40;1.00;;;;;;2273096;61;1523;-87
2021/06/12 05:31:18;206663.00;0.69;357.39;69985.00;0.23;121.73;;;;;21.70;1.00;;;;;;2270144;61;982;-88
2021/06/12 05:33:46;331685.00;1.11;572.38;103070.00;0.34;178.87;;;;;21.90;1.00;;;;;;2280570;61;907;-87
2021/06/12 05:36:13;193061.00;0.64;333.98;92845.00;0.31;161.22;;;;;22.00;1.00;;;;;;2271860;61;1920;-88
2021/06/12 05:38:39;176175.00;0.59;304.90;64887.00;0.22;112.92;;;;;22.10;1.00;;;;;;2268517;61;1370;-88
2021/06/12 05:41:06;181907.00;0.61;314.77;74246.00;0.25;129.10;;;;;23.10;1.00;;;;;;2265212;61;966;-87
2021/06/12 05:43:32;269406.00;0.90;465.32;73180.00;0.24;127.26;;;;;24.30;1.00;;;;;;2263802;61;1060;-86
2021/06/12 05:45:59;242961.00;0.81;419.84;72156.00;0.24;125.49;;;;;25.30;1.00;;;;;;2260500;61;1040;-85
2021/06/12 05:48:26;198844.00;0.66;343.93;71318.00;0.24;124.04;;;;;26.50;1.00;;;;;;2253887;61;1358;-86
2021/06/12 05:50:54;191955.00;0.64;332.07;68062.00;0.23;118.41;;;;;26.90;1.00;;;;;;2259631;61;1041;-86
2021/06/12 05:53:21;225535.00;0.75;389.87;70714.00;0.24;122.99;;;;;27.80;1.00;;;;;;2257245;61;1173;-86
2021/06/12 05:55:47;164623.00;0.55;285.00;65255.00;0.22;113.56;;;;;28.60;1.00;;;;;;2261090;61;1919;-89
2021/06/12 05:58:14;256216.00;0.85;442.64;65330.00;0.22;113.69;;;;;28.80;1.00;;;;;;2261107;61;1406;-89
2021/06/12 06:00:40;170793.00;0.57;295.63;65445.00;0.22;113.89;;;;;28.70;1.00;;;;;;2261617;61;1036;-87
2021/06/12 06:03:07;186500.00;0.62;322.68;72791.00;0.24;126.58;;;;;28.20;1.00;;;;;;2264937;61;953;-87
2021/06/12 06:05:33;212171.00;0.71;366.87;66725.00;0.22;116.10;;;;;27.90;1.00;;;;;;2271786;61;993;-86
2021/06/12 06:08:01;196246.00;0.65;339.46;68936.00;0.23;119.92;;;;;28.10;1.00;;;;;;2268517;61;1330;-88
2021/06/12 06:10:27;262247.00;0.87;453.01;71634.00;0.24;124.58;;;;;28.30;1.00;;;;;;2269128;61;1014;-87
2021/06/12 06:12:54;202883.00;0.68;350.89;69100.00;0.23;120.21;;;;;28.20;1.00;;;;;;2275815;61;981;-88
2021/06/12 06:15:20;397122.00;1.32;684.86;162649.00;0.54;281.60;;;;;28.00;1.00;;;;;;2267700;61;965;-86
2021/06/12 06:17:47;164525.00;0.55;284.84;63028.00;0.21;109.71;;;;;27.70;1.00;;;;;;2261032;61;1928;-89
2021/06/12 06:20:14;170545.00;0.57;295.21;61797.00;0.21;107.58;;;;;27.90;1.00;;;;;;2267480;61;1721;-88
2021/06/12 06:22:41;166442.00;0.55;288.14;61179.00;0.20;106.51;;;;;28.10;1.00;;;;;;2261151;61;1006;-88
2021/06/12 06:25:11;167741.00;0.56;290.38;61951.00;0.21;107.85;;;;;28.60;1.00;;;;;;2261530;61;1014;-88
2021/06/12 06:27:38;182989.00;0.61;316.64;63552.00;0.21;110.62;;;;;28.60;1.00;;;;;;2271709;61;1418;-88
2021/06/12 06:30:05;173357.00;0.58;300.05;65931.00;0.22;114.73;;;;;29.40;1.00;;;;;;2271747;61;1125;-89
2021/06/12 06:32:32;352090.00;1.17;607.45;120791.00;0.40;209.45;;;;;29.80;1.00;;;;;;2266206;61;1063;-89
2021/06/12 06:34:58;210374.00;0.70;363.78;68076.00;0.23;118.44;;;;;29.70;1.00;;;;;;2276482;61;980;-88
2021/06/12 06:37:25;217379.00;0.72;375.83;71220.00;0.24;123.87;;;;;29.70;1.00;;;;;;2273069;61;1923;-88
2021/06/12 06:39:51;116723192.00;389.08;64415940.00;65356.00;0.22;113.73;;;;;30.40;1.00;;;;;;2280153;61;1625;-88
2021/06/12 06:42:19;204000.00;0.68;352.81;70916.00;0.24;123.34;;;;;31.40;1.00;;;;;;2280176;61;1153;-88
2021/06/12 06:44:45;162827.00;0.54;281.91;56712.00;0.19;98.79;;;;;31.90;1.00;;;;;;2280098;61;1050;-87
2021/06/12 06:47:12;168754.00;0.56;292.12;65722.00;0.22;114.37;;;;;32.60;1.00;;;;;;2279558;61;1240;-87
2021/06/12 06:49:39;167983.00;0.56;290.79;53156.00;0.18;92.64;;;;;32.90;1.00;;;;;;2269685;61;1344;-86
2021/06/12 06:52:06;204286.00;0.68;353.30;64076.00;0.21;111.52;;;;;33.20;1.00;;;;;;2269653;61;1145;-87
2021/06/12 06:54:33;272062.00;0.91;469.89;61659.00;0.21;107.34;;;;;33.30;1.00;;;;;;2269766;61;1164;-87
2021/06/12 06:57:00;176416.00;0.59;305.32;60400.00;0.20;105.17;;;;;33.50;1.00;;;;;;2269684;61;1996;-84
2021/06/12 06:59:27;182693.00;0.61;316.13;58357.00;0.19;101.64;;;;;34.10;1.00;;;;;;2273066;61;1461;-84
2021/06/12 07:01:54;171734.00;0.57;297.25;67445.00;0.22;117.35;;;;;33.70;1.00;;;;;;2276459;61;1069;-85
2021/06/12 07:04:20;186582.00;0.62;322.82;61584.00;0.21;107.21;;;;;34.00;1.00;;;;;;2269866;61;1097;-87
2021/06/12 07:06:47;207419.00;0.69;358.69;63781.00;0.21;111.01;;;;;34.70;1.00;;;;;;2273080;61;1013;-86
2021/06/12 07:09:13;167733.00;0.56;290.36;63701.00;0.21;110.87;;;;;34.60;1.00;;;;;;2279619;61;1425;-85
2021/06/12 07:11:40;171585.00;0.57;297.00;60086.00;0.20;104.63;;;;;33.90;1.00;;;;;;2271642;61;965;-85
2021/06/12 07:14:06;167061.00;0.56;289.20;62971.00;0.21;109.61;;;;;33.80;1.00;;;;;;2271698;61;1152;-85
2021/06/12 07:16:34;167617.00;0.56;290.16;58299.00;0.19;101.54;;;;;34.70;1.00;;;;;;2268876;61;1997;-83
2021/06/12 07:19:00;534596.00;1.78;921.41;83041.00;0.28;144.29;;;;;35.20;1.00;;;;;;2272336;61;1354;-85
2021/06/12 07:21:27;195261.00;0.65;337.77;54929.00;0.18;95.71;;;;;35.50;1.00;;;;;;2262193;61;983;-84
2021/06/12 07:23:53;170832.00;0.57;295.70;56572.00;0.19;98.55;;;;;36.10;1.00;;;;;;2262222;61;1001;-85
2021/06/12 07:26:20;199427.00;0.66;344.94;55571.00;0.19;96.82;;;;;36.10;1.00;;;;;;2262173;61;1059;-85
2021/06/12 07:28:46;207822.00;0.69;359.39;65381.00;0.22;113.78;;;;;35.90;1.00;;;;;;2269679;61;1461;-85
2021/06/12 07:31:13;231243.00;0.77;399.69;58658.00;0.20;102.16;;;;;35.60;1.00;;;;;;2270284;61;1141;-85
2021/06/12 07:33:40;167855.00;0.56;290.57;58822.00;0.20;102.44;;;;;35.00;1.00;;;;;;2280763;61;1087;-83
2021/06/12 07:36:07;190871.00;0.64;330.21;60544.00;0.20;105.42;;;;;35.00;1.00;;;;;;2280623;61;1986;-85
2021/06/12 07:38:33;194387.00;0.65;336.26;70677.00;0.24;122.93;;;;;35.70;1.00;;;;;;2269740;61;1254;-87
2021/06/12 07:41:00;173547.00;0.58;300.38;58782.00;0.20;102.37;;;;;36.00;1.00;;;;;;2272823;61;1044;-87
2021/06/12 07:43:26;236517.00;0.79;408.76;69840.00;0.23;121.48;;;;;36.50;1.00;;;;;;2280381;61;927;-87
2021/06/12 07:45:53;196406.00;0.65;339.74;69023.00;0.23;120.07;;;;;36.50;1.00;;;;;;2280570;61;925;-87
2021/06/12 07:48:19;172382.00;0.57;298.37;60556.00;0.20;105.44;;;;;36.30;1.00;;;;;;2280629;61;1320;-86
2021/06/12 07:50:47;189938.00;0.63;328.60;64299.00;0.21;111.91;;;;;36.20;1.00;;;;;;2276145;61;1002;-86
2021/06/12 07:53:13;172867.00;0.58;299.20;58325.00;0.19;101.58;;;;;36.50;1.00;;;;;;2276231;61;1031;-88
2021/06/12 07:55:40;190522.00;0.64;329.61;52403.00;0.17;91.34;;;;;37.20;1.00;;;;;;2276199;61;1994;-88
2021/06/12 07:58:06;452547.00;1.51;780.16;204840.00;0.68;354.25;;;;;37.00;1.00;;;;;;2276249;61;1383;-87
2021/06/12 08:00:33;163333.00;0.54;282.78;63083.00;0.21;109.81;;;;;37.60;1.00;;;;;;2276250;61;1099;-87
2021/06/12 08:02:59;166867.00;0.56;288.87;54437.00;0.18;94.86;;;;;36.90;1.00;;;;;;2276232;61;923;-86
2021/06/12 08:05:26;179532.00;0.60;310.68;45108.00;0.15;78.73;;;;;36.60;1.00;;;;;;2276222;61;1015;-87
2021/06/12 08:07:54;202305.00;0.67;349.89;63190.00;0.21;109.99;;;;;36.30;1.00;;;;;;2276633;61;1552;-87
2021/06/12 08:10:20;234655.00;0.78;405.56;54409.00;0.18;94.81;;;;;36.40;1.00;;;;;;2280716;61;1686;-86
2021/06/12 08:12:46;262278.00;0.87;453.07;53969.00;0.18;94.05;;;;;35.80;1.00;;;;;;2280746;61;982;-87
2021/06/12 08:15:14;166494.00;0.55;288.23;54295.00;0.18;94.61;;;;;37.00;1.00;;;;;;2280708;61;996;-87
2021/06/12 08:17:40;164905.00;0.55;285.49;65087.00;0.22;113.27;;;;;37.20;1.00;;;;;;2273513;61;2021;-87
2021/06/12 08:20:08;438836.00;1.46;756.58;132505.00;0.44;229.65;;;;;37.10;1.00;;;;;;2280711;61;1086;-87
2021/06/12 08:22:35;168578.00;0.56;291.82;53504.00;0.18;93.25;;;;;37.40;1.00;;;;;;2280642;61;932;-87
2021/06/12 08:25:03;175916.00;0.59;304.46;63606.00;0.21;110.71;;;;;37.50;1.00;;;;;;2280738;61;995;-88
2021/06/12 08:27:29;173599.00;0.58;300.47;58003.00;0.19;101.02;;;;;37.40;1.00;;;;;;2280462;61;1282;-88
2021/06/12 08:29:56;177369.00;0.59;306.96;60206.00;0.20;104.83;;;;;37.30;1.00;;;;;;2273580;61;1023;-88
2021/06/12 08:32:22;174020.00;0.58;301.19;71488.00;0.24;124.33;;;;;37.10;1.00;;;;;;2267935;61;1093;-88
2021/06/12 08:34:49;172007.00;0.57;297.72;56976.00;0.19;99.25;;;;;37.00;1.00;;;;;;2261321;61;1032;-88
2021/06/12 08:37:15;173598.00;0.58;300.46;61992.00;0.21;107.92;;;;;37.20;1.00;;;;;;2261269;61;2011;-87
2021/06/12 08:39:42;169861.00;0.57;294.03;51043.00;0.17;88.99;;;;;37.30;1.00;;;;;;2259833;61;1396;-87
2021/06/12 08:42:10;167721.00;0.56;290.34;53679.00;0.18;93.55;;;;;37.10;1.00;;;;;;2259897;61;1144;-87
2021/06/12 08:44:37;177529.00;0.59;307.23;56043.00;0.19;97.64;;;;;36.90;1.00;;;;;;2259998;61;1012;-86
2021/06/12 08:47:04;197217.00;0.66;341.13;54515.00;0.18;94.99;;;;;36.50;1.00;;;;;;2259968;61;1028;-86
2021/06/12 08:49:31;202030.00;0.67;349.42;58571.00;0.20;102.01;;;;;35.40;1.00;;;;;;2261319;61;1363;-85
2021/06/12 08:51:57;166848.00;0.56;288.84;52575.00;0.18;91.64;;;;;34.90;1.00;;;;;;2268570;61;998;-85
2021/06/12 08:54:26;38437.00;0.13;67.18;0.00;0.00;0.62;;;;;34.80;1.00;;;;;;2268659;61;961;-86
2021/06/12 08:56:53;29869.00;0.10;52.36;0.00;0.00;0.62;;;;;35.10;1.00;;;;;;2272050;61;1910;-85
2021/06/12 08:59:21;0.00;0.00;0.62;0.00;0.00;0.62;;;;;35.30;1.00;;;;;;2263777;61;1325;-87
2021/06/12 09:01:47;0.00;0.00;0.62;0.00;0.00;0.62;;;;;35.30;1.00;;;;;;2260577;61;988;-86
2021/06/12 09:04:26;0.00;0.00;0.62;0.00;0.00;0.62;;;;;35.20;1.00;;;;;;2260131;61;950;-86
2021/06/12 09:07:17;47336.00;0.16;82.58;0.00;0.00;0.62;;;;;35.00;1.00;;;;;;2260561;61;1039;-85
2021/06/12 09:09:43;162075.00;0.54;280.61;62347.00;0.21;108.53;;;;;35.00;1.00;;;;;;2263906;61;1482;-86
2021/06/12 09:12:10;0.00;0.00;0.62;0.00;0.00;0.62;;;;;35.60;1.00;;;;;;2263913;61;950;-85
2021/06/12 09:14:38;0.00;0.00;0.62;0.00;0.00;0.62;;;;;35.60;1.00;;;;;;2257262;61;959;-86
2021/06/12 09:17:04;43105.00;0.14;75.26;0.00;0.00;0.62;;;;;35.60;1.00;;;;;;2265300;61;1920;-85
2021/06/12 09:19:40;0.00;0.00;0.62;0.00;0.00;0.62;;;;;36.10;1.00;;;;;;2267865;61;1360;-85
2021/06/12 09:22:09;173010.00;0.58;299.45;57693.00;0.19;100.49;;;;;36.20;1.00;;;;;;2273418;61;938;-84
2021/06/12 09:24:39;0.00;0.00;0.62;0.00;0.00;0.62;;;;;35.70;1.00;;;;;;2280622;61;1015;-85
2021/06/12 09:27:16;0.00;0.00;0.62;0.00;0.00;0.62;;;;;35.40;1.00;;;;;;2277141;61;1151;-85
2021/06/12 09:29:46;0.00;0.00;0.62;0.00;0.00;0.62;;;;;34.90;1.00;;;;;;2280866;61;1335;-85
2021/06/12 09:32:15;0.00;0.00;0.62;0.00;0.00;0.62;;;;;34.40;1.00;;;;;;2280893;61;955;-86
2021/06/12 09:34:43;382086.00;1.27;659.01;146176.00;0.49;253.22;;;;;34.00;1.00;;;;;;2277113;61;1038;-84